sensor_id;sensor_type;location;lat;lon;timestamp;P1;durP1;ratioP1;P2;durP2;ratioP2
28613;SDS011;15806;53.548;9.964;2023-04-24T00:01:34;10.67;;;5.17;;
28613;SDS011;15806;53.548;9.964;2023-04-24T00:03:14;11.70;;;5.73;;
28613;SDS011;15806;53.548;9.964;2023-04-24T00:04:55;13.87;;;5.53;;
28613;SDS011;15806;53.548;9.964;2023-04-24T00:06:36;11.93;;;6.00;;
28613;SDS011;15806;53.548;9.964;2023-04-24T00:08:17;9.00;;;5.55;;
28613;SDS011;15806;53.548;9.964;2023-04-24T00:09:58;9.60;;;5.65;;
28613;SDS011;15806;53.548;9.964;2023-04-24T00:11:38;9.07;;;5.07;;
28613;SDS011;15806;53.548;9.964;2023-04-24T00:13:19;7.60;;;4.90;;
28613;SDS011;15806;53.548;9.964;2023-04-24T00:15:00;9.13;;;5.07;;
28613;SDS011;15806;53.548;9.964;2023-04-24T00:16:40;9.63;;;5.25;;
28613;SDS011;15806;53.548;9.964;2023-04-24T00:18:21;11.23;;;5.53;;
28613;SDS011;15806;53.548;9.964;2023-04-24T00:20:02;7.83;;;4.97;;
28613;SDS011;15806;53.548;9.964;2023-04-24T00:21:43;8.30;;;4.75;;
28613;SDS011;15806;53.548;9.964;2023-04-24T00:23:23;9.57;;;5.47;;
28613;SDS011;15806;53.548;9.964;2023-04-24T00:25:04;9.43;;;5.27;;
28613;SDS011;15806;53.548;9.964;2023-04-24T00:26:45;10.43;;;5.22;;
28613;SDS011;15806;53.548;9.964;2023-04-24T00:28:25;9.67;;;4.57;;
28613;SDS011;15806;53.548;9.964;2023-04-24T00:30:06;8.03;;;4.93;;
28613;SDS011;15806;53.548;9.964;2023-04-24T00:31:47;9.52;;;4.90;;
28613;SDS011;15806;53.548;9.964;2023-04-24T00:33:27;8.87;;;5.53;;
28613;SDS011;15806;53.548;9.964;2023-04-24T00:35:08;10.17;;;5.30;;
28613;SDS011;15806;53.548;9.964;2023-04-24T00:36:48;7.17;;;4.67;;
28613;SDS011;15806;53.548;9.964;2023-04-24T00:38:29;8.20;;;5.17;;
28613;SDS011;15806;53.548;9.964;2023-04-24T00:40:09;9.10;;;4.97;;
28613;SDS011;15806;53.548;9.964;2023-04-24T00:41:50;8.00;;;4.90;;
28613;SDS011;15806;53.548;9.964;2023-04-24T00:43:31;9.50;;;5.03;;
28613;SDS011;15806;53.548;9.964;2023-04-24T00:45:12;9.07;;;4.60;;
28613;SDS011;15806;53.548;9.964;2023-04-24T00:46:52;9.75;;;4.82;;
28613;SDS011;15806;53.548;9.964;2023-04-24T00:48:34;6.63;;;4.13;;
28613;SDS011;15806;53.548;9.964;2023-04-24T00:50:15;10.30;;;5.03;;
28613;SDS011;15806;53.548;9.964;2023-04-24T00:51:56;9.83;;;5.07;;
28613;SDS011;15806;53.548;9.964;2023-04-24T00:53:37;8.30;;;4.40;;
28613;SDS011;15806;53.548;9.964;2023-04-24T00:55:17;12.77;;;5.17;;
28613;SDS011;15806;53.548;9.964;2023-04-24T00:56:58;7.33;;;4.77;;
28613;SDS011;15806;53.548;9.964;2023-04-24T00:58:38;7.33;;;4.43;;
28613;SDS011;15806;53.548;9.964;2023-04-24T01:00:19;7.33;;;4.30;;
28613;SDS011;15806;53.548;9.964;2023-04-24T01:02:00;9.38;;;4.88;;
28613;SDS011;15806;53.548;9.964;2023-04-24T01:03:41;11.00;;;4.67;;
28613;SDS011;15806;53.548;9.964;2023-04-24T01:05:22;7.80;;;4.63;;
28613;SDS011;15806;53.548;9.964;2023-04-24T01:07:03;7.77;;;4.60;;
28613;SDS011;15806;53.548;9.964;2023-04-24T01:08:44;9.98;;;5.00;;
28613;SDS011;15806;53.548;9.964;2023-04-24T01:10:26;9.63;;;4.30;;
28613;SDS011;15806;53.548;9.964;2023-04-24T01:12:09;7.45;;;4.60;;
28613;SDS011;15806;53.548;9.964;2023-04-24T01:13:49;9.20;;;4.77;;
28613;SDS011;15806;53.548;9.964;2023-04-24T01:15:30;7.23;;;4.20;;
28613;SDS011;15806;53.548;9.964;2023-04-24T01:17:11;6.67;;;4.47;;
28613;SDS011;15806;53.548;9.964;2023-04-24T01:18:51;6.67;;;4.07;;
28613;SDS011;15806;53.548;9.964;2023-04-24T01:20:32;6.40;;;4.17;;
28613;SDS011;15806;53.548;9.964;2023-04-24T01:23:54;8.02;;;3.97;;
28613;SDS011;15806;53.548;9.964;2023-04-24T01:25:35;8.40;;;3.90;;
28613;SDS011;15806;53.548;9.964;2023-04-24T01:27:16;9.15;;;4.15;;
28613;SDS011;15806;53.548;9.964;2023-04-24T01:28:56;6.57;;;3.67;;
28613;SDS011;15806;53.548;9.964;2023-04-24T01:30:37;8.65;;;3.80;;
28613;SDS011;15806;53.548;9.964;2023-04-24T01:32:18;7.30;;;3.80;;
28613;SDS011;15806;53.548;9.964;2023-04-24T01:33:58;6.57;;;3.83;;
28613;SDS011;15806;53.548;9.964;2023-04-24T01:35:39;6.47;;;3.60;;
28613;SDS011;15806;53.548;9.964;2023-04-24T01:37:20;8.60;;;3.60;;
28613;SDS011;15806;53.548;9.964;2023-04-24T01:39:00;5.23;;;3.33;;
28613;SDS011;15806;53.548;9.964;2023-04-24T01:40:41;5.55;;;3.90;;
28613;SDS011;15806;53.548;9.964;2023-04-24T01:42:22;4.83;;;3.00;;
28613;SDS011;15806;53.548;9.964;2023-04-24T01:44:03;7.20;;;3.63;;
28613;SDS011;15806;53.548;9.964;2023-04-24T01:45:43;4.20;;;2.93;;
28613;SDS011;15806;53.548;9.964;2023-04-24T01:47:24;5.20;;;3.43;;
28613;SDS011;15806;53.548;9.964;2023-04-24T01:49:04;4.83;;;2.93;;
28613;SDS011;15806;53.548;9.964;2023-04-24T01:50:45;5.00;;;2.80;;
28613;SDS011;15806;53.548;9.964;2023-04-24T01:52:26;3.47;;;2.70;;
28613;SDS011;15806;53.548;9.964;2023-04-24T01:54:06;5.73;;;2.47;;
28613;SDS011;15806;53.548;9.964;2023-04-24T01:55:47;2.60;;;1.97;;
28613;SDS011;15806;53.548;9.964;2023-04-24T01:57:28;4.30;;;2.33;;
28613;SDS011;15806;53.548;9.964;2023-04-24T01:59:11;5.35;;;1.88;;
28613;SDS011;15806;53.548;9.964;2023-04-24T02:00:52;2.58;;;1.95;;
28613;SDS011;15806;53.548;9.964;2023-04-24T02:02:33;2.90;;;1.73;;
28613;SDS011;15806;53.548;9.964;2023-04-24T02:04:13;2.83;;;1.50;;
28613;SDS011;15806;53.548;9.964;2023-04-24T02:05:54;4.13;;;1.90;;
28613;SDS011;15806;53.548;9.964;2023-04-24T02:07:34;3.53;;;2.00;;
28613;SDS011;15806;53.548;9.964;2023-04-24T02:09:15;2.73;;;1.53;;
28613;SDS011;15806;53.548;9.964;2023-04-24T02:10:55;5.10;;;1.73;;
28613;SDS011;15806;53.548;9.964;2023-04-24T02:12:36;3.20;;;1.53;;
28613;SDS011;15806;53.548;9.964;2023-04-24T02:14:16;4.33;;;1.90;;
28613;SDS011;15806;53.548;9.964;2023-04-24T02:16:00;3.00;;;1.73;;
28613;SDS011;15806;53.548;9.964;2023-04-24T02:17:40;2.83;;;1.90;;
28613;SDS011;15806;53.548;9.964;2023-04-24T02:19:21;3.07;;;1.43;;
28613;SDS011;15806;53.548;9.964;2023-04-24T02:21:01;2.83;;;1.67;;
28613;SDS011;15806;53.548;9.964;2023-04-24T02:22:42;2.03;;;1.50;;
28613;SDS011;15806;53.548;9.964;2023-04-24T02:24:23;3.73;;;2.07;;
28613;SDS011;15806;53.548;9.964;2023-04-24T02:26:03;3.57;;;1.80;;
28613;SDS011;15806;53.548;9.964;2023-04-24T02:27:44;2.60;;;1.83;;
28613;SDS011;15806;53.548;9.964;2023-04-24T02:29:24;3.03;;;1.63;;
28613;SDS011;15806;53.548;9.964;2023-04-24T02:31:05;2.63;;;1.70;;
28613;SDS011;15806;53.548;9.964;2023-04-24T02:32:45;3.13;;;2.27;;
28613;SDS011;15806;53.548;9.964;2023-04-24T02:34:26;2.60;;;1.63;;
28613;SDS011;15806;53.548;9.964;2023-04-24T02:36:06;2.87;;;1.70;;
28613;SDS011;15806;53.548;9.964;2023-04-24T02:37:47;5.63;;;1.97;;
28613;SDS011;15806;53.548;9.964;2023-04-24T02:39:27;2.87;;;2.13;;
28613;SDS011;15806;53.548;9.964;2023-04-24T02:41:08;2.83;;;1.80;;
28613;SDS011;15806;53.548;9.964;2023-04-24T02:42:48;5.57;;;1.97;;
28613;SDS011;15806;53.548;9.964;2023-04-24T02:44:29;2.23;;;1.53;;
28613;SDS011;15806;53.548;9.964;2023-04-24T02:46:09;4.03;;;2.20;;
28613;SDS011;15806;53.548;9.964;2023-04-24T02:47:50;2.00;;;1.30;;
28613;SDS011;15806;53.548;9.964;2023-04-24T02:49:30;2.50;;;1.40;;
28613;SDS011;15806;53.548;9.964;2023-04-24T02:51:11;2.50;;;1.63;;
28613;SDS011;15806;53.548;9.964;2023-04-24T02:52:51;2.70;;;1.60;;
28613;SDS011;15806;53.548;9.964;2023-04-24T02:54:32;2.53;;;1.40;;
28613;SDS011;15806;53.548;9.964;2023-04-24T02:56:12;2.40;;;1.37;;
28613;SDS011;15806;53.548;9.964;2023-04-24T02:57:53;2.17;;;1.23;;
28613;SDS011;15806;53.548;9.964;2023-04-24T02:59:33;1.57;;;1.20;;
28613;SDS011;15806;53.548;9.964;2023-04-24T03:01:14;1.50;;;1.40;;
28613;SDS011;15806;53.548;9.964;2023-04-24T03:02:54;2.80;;;1.20;;
28613;SDS011;15806;53.548;9.964;2023-04-24T03:04:35;3.17;;;1.43;;
28613;SDS011;15806;53.548;9.964;2023-04-24T03:06:15;2.90;;;1.50;;
28613;SDS011;15806;53.548;9.964;2023-04-24T03:07:56;4.40;;;1.40;;
28613;SDS011;15806;53.548;9.964;2023-04-24T03:09:37;2.80;;;1.20;;
28613;SDS011;15806;53.548;9.964;2023-04-24T03:11:17;2.23;;;1.40;;
28613;SDS011;15806;53.548;9.964;2023-04-24T03:12:58;2.57;;;1.57;;
28613;SDS011;15806;53.548;9.964;2023-04-24T03:14:38;3.67;;;1.93;;
28613;SDS011;15806;53.548;9.964;2023-04-24T03:16:19;2.13;;;1.30;;
28613;SDS011;15806;53.548;9.964;2023-04-24T03:17:59;1.73;;;1.20;;
28613;SDS011;15806;53.548;9.964;2023-04-24T03:19:40;2.83;;;1.73;;
28613;SDS011;15806;53.548;9.964;2023-04-24T03:21:20;2.20;;;1.03;;
28613;SDS011;15806;53.548;9.964;2023-04-24T03:23:01;2.67;;;1.30;;
28613;SDS011;15806;53.548;9.964;2023-04-24T03:24:41;3.53;;;1.17;;
28613;SDS011;15806;53.548;9.964;2023-04-24T03:26:22;2.43;;;1.27;;
28613;SDS011;15806;53.548;9.964;2023-04-24T03:28:02;1.67;;;1.33;;
28613;SDS011;15806;53.548;9.964;2023-04-24T03:29:43;3.07;;;1.30;;
28613;SDS011;15806;53.548;9.964;2023-04-24T03:31:23;2.17;;;1.50;;
28613;SDS011;15806;53.548;9.964;2023-04-24T03:33:04;3.10;;;1.17;;
28613;SDS011;15806;53.548;9.964;2023-04-24T03:34:44;2.23;;;1.00;;
28613;SDS011;15806;53.548;9.964;2023-04-24T03:36:25;1.73;;;1.10;;
28613;SDS011;15806;53.548;9.964;2023-04-24T03:38:05;1.50;;;1.10;;
28613;SDS011;15806;53.548;9.964;2023-04-24T03:39:45;1.97;;;1.43;;
28613;SDS011;15806;53.548;9.964;2023-04-24T03:41:26;1.57;;;1.20;;
28613;SDS011;15806;53.548;9.964;2023-04-24T03:43:06;2.13;;;1.40;;
28613;SDS011;15806;53.548;9.964;2023-04-24T03:44:47;3.20;;;1.70;;
28613;SDS011;15806;53.548;9.964;2023-04-24T03:46:27;3.47;;;1.53;;
28613;SDS011;15806;53.548;9.964;2023-04-24T03:48:08;2.00;;;1.50;;
28613;SDS011;15806;53.548;9.964;2023-04-24T03:49:48;1.27;;;1.07;;
28613;SDS011;15806;53.548;9.964;2023-04-24T03:51:29;1.10;;;0.87;;
28613;SDS011;15806;53.548;9.964;2023-04-24T03:53:09;1.13;;;1.03;;
28613;SDS011;15806;53.548;9.964;2023-04-24T03:54:50;2.47;;;0.93;;
28613;SDS011;15806;53.548;9.964;2023-04-24T03:56:30;1.60;;;0.93;;
28613;SDS011;15806;53.548;9.964;2023-04-24T03:58:11;1.53;;;1.03;;
28613;SDS011;15806;53.548;9.964;2023-04-24T03:59:51;1.53;;;0.90;;
28613;SDS011;15806;53.548;9.964;2023-04-24T04:01:32;2.70;;;0.80;;
28613;SDS011;15806;53.548;9.964;2023-04-24T04:03:12;2.10;;;1.10;;
28613;SDS011;15806;53.548;9.964;2023-04-24T04:04:53;1.97;;;0.97;;
28613;SDS011;15806;53.548;9.964;2023-04-24T04:06:33;1.10;;;0.80;;
28613;SDS011;15806;53.548;9.964;2023-04-24T04:08:14;1.20;;;0.90;;
28613;SDS011;15806;53.548;9.964;2023-04-24T04:09:55;0.90;;;0.70;;
28613;SDS011;15806;53.548;9.964;2023-04-24T04:11:35;1.57;;;1.33;;
28613;SDS011;15806;53.548;9.964;2023-04-24T04:13:16;2.40;;;0.60;;
28613;SDS011;15806;53.548;9.964;2023-04-24T04:14:56;1.53;;;1.00;;
28613;SDS011;15806;53.548;9.964;2023-04-24T04:16:37;1.37;;;0.87;;
28613;SDS011;15806;53.548;9.964;2023-04-24T04:18:17;13.10;;;1.90;;
28613;SDS011;15806;53.548;9.964;2023-04-24T04:19:58;2.53;;;0.70;;
28613;SDS011;15806;53.548;9.964;2023-04-24T04:21:38;1.97;;;1.10;;
28613;SDS011;15806;53.548;9.964;2023-04-24T04:23:19;1.37;;;0.80;;
28613;SDS011;15806;53.548;9.964;2023-04-24T04:24:59;3.27;;;0.90;;
28613;SDS011;15806;53.548;9.964;2023-04-24T04:26:40;2.80;;;0.93;;
28613;SDS011;15806;53.548;9.964;2023-04-24T04:28:20;1.03;;;0.80;;
28613;SDS011;15806;53.548;9.964;2023-04-24T04:30:01;2.10;;;1.47;;
28613;SDS011;15806;53.548;9.964;2023-04-24T04:31:42;1.08;;;0.70;;
28613;SDS011;15806;53.548;9.964;2023-04-24T04:35:05;2.58;;;0.70;;
28613;SDS011;15806;53.548;9.964;2023-04-24T04:36:45;0.93;;;0.60;;
28613;SDS011;15806;53.548;9.964;2023-04-24T04:39:09;1.23;;;0.95;;
28613;SDS011;15806;53.548;9.964;2023-04-24T04:40:49;1.87;;;0.80;;
28613;SDS011;15806;53.548;9.964;2023-04-24T04:42:30;3.60;;;0.80;;
28613;SDS011;15806;53.548;9.964;2023-04-24T04:44:11;1.37;;;0.87;;
28613;SDS011;15806;53.548;9.964;2023-04-24T04:45:52;1.45;;;0.80;;
28613;SDS011;15806;53.548;9.964;2023-04-24T04:47:32;0.80;;;0.60;;
28613;SDS011;15806;53.548;9.964;2023-04-24T04:49:13;1.60;;;0.80;;
28613;SDS011;15806;53.548;9.964;2023-04-24T04:50:53;1.47;;;0.77;;
28613;SDS011;15806;53.548;9.964;2023-04-24T04:52:34;2.80;;;1.03;;
28613;SDS011;15806;53.548;9.964;2023-04-24T04:54:14;1.37;;;1.07;;
28613;SDS011;15806;53.548;9.964;2023-04-24T04:55:55;1.17;;;0.97;;
28613;SDS011;15806;53.548;9.964;2023-04-24T04:57:37;1.83;;;1.00;;
28613;SDS011;15806;53.548;9.964;2023-04-24T04:59:17;1.00;;;0.77;;
28613;SDS011;15806;53.548;9.964;2023-04-24T05:00:58;1.60;;;0.93;;
28613;SDS011;15806;53.548;9.964;2023-04-24T05:02:38;2.13;;;0.80;;
28613;SDS011;15806;53.548;9.964;2023-04-24T05:04:19;1.60;;;0.87;;
28613;SDS011;15806;53.548;9.964;2023-04-24T05:06:00;1.40;;;1.30;;
28613;SDS011;15806;53.548;9.964;2023-04-24T05:07:40;2.53;;;1.30;;
28613;SDS011;15806;53.548;9.964;2023-04-24T05:09:21;1.43;;;1.13;;
28613;SDS011;15806;53.548;9.964;2023-04-24T05:11:01;1.77;;;1.40;;
28613;SDS011;15806;53.548;9.964;2023-04-24T05:12:42;2.50;;;1.10;;
28613;SDS011;15806;53.548;9.964;2023-04-24T05:14:22;2.07;;;0.70;;
28613;SDS011;15806;53.548;9.964;2023-04-24T05:16:03;2.27;;;0.77;;
28613;SDS011;15806;53.548;9.964;2023-04-24T05:17:43;3.03;;;0.97;;
28613;SDS011;15806;53.548;9.964;2023-04-24T05:19:24;0.87;;;0.70;;
28613;SDS011;15806;53.548;9.964;2023-04-24T05:21:04;1.33;;;0.80;;
28613;SDS011;15806;53.548;9.964;2023-04-24T05:22:45;2.00;;;0.90;;
28613;SDS011;15806;53.548;9.964;2023-04-24T05:24:25;1.70;;;0.73;;
28613;SDS011;15806;53.548;9.964;2023-04-24T05:26:06;11.77;;;2.23;;
28613;SDS011;15806;53.548;9.964;2023-04-24T05:27:46;0.40;;;0.40;;
28613;SDS011;15806;53.548;9.964;2023-04-24T05:29:27;0.90;;;0.63;;
28613;SDS011;15806;53.548;9.964;2023-04-24T05:31:08;1.30;;;0.68;;
28613;SDS011;15806;53.548;9.964;2023-04-24T05:32:48;1.80;;;0.80;;
28613;SDS011;15806;53.548;9.964;2023-04-24T05:34:29;1.03;;;0.90;;
28613;SDS011;15806;53.548;9.964;2023-04-24T05:36:09;1.03;;;0.63;;
28613;SDS011;15806;53.548;9.964;2023-04-24T05:37:50;2.13;;;1.13;;
28613;SDS011;15806;53.548;9.964;2023-04-24T05:39:30;1.57;;;1.03;;
28613;SDS011;15806;53.548;9.964;2023-04-24T05:41:11;1.57;;;0.80;;
28613;SDS011;15806;53.548;9.964;2023-04-24T05:42:51;2.13;;;0.70;;
28613;SDS011;15806;53.548;9.964;2023-04-24T05:44:32;1.93;;;0.90;;
28613;SDS011;15806;53.548;9.964;2023-04-24T05:46:12;2.90;;;1.10;;
28613;SDS011;15806;53.548;9.964;2023-04-24T05:47:53;2.37;;;1.10;;
28613;SDS011;15806;53.548;9.964;2023-04-24T05:49:33;3.07;;;1.20;;
28613;SDS011;15806;53.548;9.964;2023-04-24T05:51:14;1.27;;;0.77;;
28613;SDS011;15806;53.548;9.964;2023-04-24T05:52:54;1.53;;;0.93;;
28613;SDS011;15806;53.548;9.964;2023-04-24T05:54:35;1.10;;;0.77;;
28613;SDS011;15806;53.548;9.964;2023-04-24T05:56:15;1.30;;;0.90;;
28613;SDS011;15806;53.548;9.964;2023-04-24T05:57:56;4.07;;;1.53;;
28613;SDS011;15806;53.548;9.964;2023-04-24T05:59:37;1.47;;;0.90;;
28613;SDS011;15806;53.548;9.964;2023-04-24T06:01:17;2.60;;;0.93;;
28613;SDS011;15806;53.548;9.964;2023-04-24T06:02:59;1.70;;;0.93;;
28613;SDS011;15806;53.548;9.964;2023-04-24T06:04:40;1.83;;;0.77;;
28613;SDS011;15806;53.548;9.964;2023-04-24T06:06:20;1.70;;;0.87;;
28613;SDS011;15806;53.548;9.964;2023-04-24T06:08:01;1.07;;;0.90;;
28613;SDS011;15806;53.548;9.964;2023-04-24T06:09:41;3.20;;;0.73;;
28613;SDS011;15806;53.548;9.964;2023-04-24T06:11:22;1.60;;;0.87;;
28613;SDS011;15806;53.548;9.964;2023-04-24T06:13:02;1.40;;;0.97;;
28613;SDS011;15806;53.548;9.964;2023-04-24T06:14:43;1.40;;;0.87;;
28613;SDS011;15806;53.548;9.964;2023-04-24T06:16:23;1.77;;;0.90;;
28613;SDS011;15806;53.548;9.964;2023-04-24T06:18:04;2.40;;;0.80;;
28613;SDS011;15806;53.548;9.964;2023-04-24T06:19:45;1.50;;;0.87;;
28613;SDS011;15806;53.548;9.964;2023-04-24T06:21:25;2.73;;;1.03;;
28613;SDS011;15806;53.548;9.964;2023-04-24T06:23:06;1.40;;;1.00;;
28613;SDS011;15806;53.548;9.964;2023-04-24T06:24:46;2.70;;;1.10;;
28613;SDS011;15806;53.548;9.964;2023-04-24T06:26:27;3.03;;;0.90;;
28613;SDS011;15806;53.548;9.964;2023-04-24T06:28:07;2.50;;;0.90;;
28613;SDS011;15806;53.548;9.964;2023-04-24T06:29:48;1.70;;;0.83;;
28613;SDS011;15806;53.548;9.964;2023-04-24T06:31:28;2.73;;;0.80;;
28613;SDS011;15806;53.548;9.964;2023-04-24T06:33:09;1.93;;;1.10;;
28613;SDS011;15806;53.548;9.964;2023-04-24T06:34:52;1.43;;;0.77;;
28613;SDS011;15806;53.548;9.964;2023-04-24T06:36:33;4.20;;;1.10;;
28613;SDS011;15806;53.548;9.964;2023-04-24T06:38:14;2.80;;;0.98;;
28613;SDS011;15806;53.548;9.964;2023-04-24T06:39:54;3.60;;;1.13;;
28613;SDS011;15806;53.548;9.964;2023-04-24T06:41:35;2.80;;;1.17;;
28613;SDS011;15806;53.548;9.964;2023-04-24T06:43:15;2.27;;;1.10;;
28613;SDS011;15806;53.548;9.964;2023-04-24T06:44:57;1.03;;;0.80;;
28613;SDS011;15806;53.548;9.964;2023-04-24T06:46:37;2.65;;;1.10;;
28613;SDS011;15806;53.548;9.964;2023-04-24T06:48:18;2.43;;;1.20;;
28613;SDS011;15806;53.548;9.964;2023-04-24T06:49:58;1.87;;;0.90;;
28613;SDS011;15806;53.548;9.964;2023-04-24T06:51:39;2.30;;;1.17;;
28613;SDS011;15806;53.548;9.964;2023-04-24T06:53:19;2.27;;;1.53;;
28613;SDS011;15806;53.548;9.964;2023-04-24T06:55:00;2.17;;;1.10;;
28613;SDS011;15806;53.548;9.964;2023-04-24T06:56:44;3.38;;;1.40;;
28613;SDS011;15806;53.548;9.964;2023-04-24T06:58:25;2.13;;;1.10;;
28613;SDS011;15806;53.548;9.964;2023-04-24T07:00:05;2.03;;;1.10;;
28613;SDS011;15806;53.548;9.964;2023-04-24T07:01:47;2.60;;;1.40;;
28613;SDS011;15806;53.548;9.964;2023-04-24T07:03:27;3.43;;;1.50;;
28613;SDS011;15806;53.548;9.964;2023-04-24T07:05:08;3.47;;;1.40;;
28613;SDS011;15806;53.548;9.964;2023-04-24T07:06:48;2.93;;;1.47;;
28613;SDS011;15806;53.548;9.964;2023-04-24T07:08:29;2.13;;;1.30;;
28613;SDS011;15806;53.548;9.964;2023-04-24T07:10:10;1.70;;;1.10;;
28613;SDS011;15806;53.548;9.964;2023-04-24T07:11:51;1.80;;;1.30;;
28613;SDS011;15806;53.548;9.964;2023-04-24T07:13:31;1.67;;;1.20;;
28613;SDS011;15806;53.548;9.964;2023-04-24T07:15:12;1.87;;;1.20;;
28613;SDS011;15806;53.548;9.964;2023-04-24T07:16:52;1.97;;;1.50;;
28613;SDS011;15806;53.548;9.964;2023-04-24T07:18:33;1.60;;;1.20;;
28613;SDS011;15806;53.548;9.964;2023-04-24T07:20:13;2.27;;;1.43;;
28613;SDS011;15806;53.548;9.964;2023-04-24T07:21:54;2.87;;;1.33;;
28613;SDS011;15806;53.548;9.964;2023-04-24T07:23:34;3.27;;;1.50;;
28613;SDS011;15806;53.548;9.964;2023-04-24T07:25:15;4.43;;;1.80;;
28613;SDS011;15806;53.548;9.964;2023-04-24T07:26:56;3.60;;;2.00;;
28613;SDS011;15806;53.548;9.964;2023-04-24T07:28:39;2.43;;;1.80;;
28613;SDS011;15806;53.548;9.964;2023-04-24T07:30:27;2.75;;;1.73;;
28613;SDS011;15806;53.548;9.964;2023-04-24T07:32:08;1.80;;;1.70;;
28613;SDS011;15806;53.548;9.964;2023-04-24T07:33:48;5.13;;;1.97;;
28613;SDS011;15806;53.548;9.964;2023-04-24T07:35:29;1.77;;;1.50;;
28613;SDS011;15806;53.548;9.964;2023-04-24T07:37:09;4.73;;;2.00;;
28613;SDS011;15806;53.548;9.964;2023-04-24T07:38:50;3.50;;;1.77;;
28613;SDS011;15806;53.548;9.964;2023-04-24T07:40:30;5.10;;;1.60;;
28613;SDS011;15806;53.548;9.964;2023-04-24T07:42:11;2.80;;;1.90;;
28613;SDS011;15806;53.548;9.964;2023-04-24T07:44:07;4.13;;;2.10;;
28613;SDS011;15806;53.548;9.964;2023-04-24T07:45:48;3.90;;;2.17;;
28613;SDS011;15806;53.548;9.964;2023-04-24T07:47:52;1.85;;;1.67;;
28613;SDS011;15806;53.548;9.964;2023-04-24T07:49:35;3.35;;;2.50;;
28613;SDS011;15806;53.548;9.964;2023-04-24T07:51:16;3.80;;;2.20;;
28613;SDS011;15806;53.548;9.964;2023-04-24T07:53:15;3.13;;;1.98;;
28613;SDS011;15806;53.548;9.964;2023-04-24T07:57:25;5.50;;;2.83;;
28613;SDS011;15806;53.548;9.964;2023-04-24T07:59:14;4.53;;;2.25;;
28613;SDS011;15806;53.548;9.964;2023-04-24T08:00:58;4.13;;;2.60;;
28613;SDS011;15806;53.548;9.964;2023-04-24T08:02:39;4.13;;;3.00;;
28613;SDS011;15806;53.548;9.964;2023-04-24T08:04:28;6.55;;;2.97;;
28613;SDS011;15806;53.548;9.964;2023-04-24T08:06:12;4.70;;;2.70;;
28613;SDS011;15806;53.548;9.964;2023-04-24T08:08:08;3.55;;;2.80;;
28613;SDS011;15806;53.548;9.964;2023-04-24T08:10:54;3.15;;;2.35;;
28613;SDS011;15806;53.548;9.964;2023-04-24T08:12:18;5.85;;;2.78;;
28613;SDS011;15806;53.548;9.964;2023-04-24T08:19:15;4.32;;;2.88;;
28613;SDS011;15806;53.548;9.964;2023-04-24T08:21:09;3.75;;;2.80;;
28613;SDS011;15806;53.548;9.964;2023-04-24T08:22:50;3.17;;;2.50;;
28613;SDS011;15806;53.548;9.964;2023-04-24T08:24:36;4.95;;;3.35;;
28613;SDS011;15806;53.548;9.964;2023-04-24T08:26:17;5.00;;;2.60;;
28613;SDS011;15806;53.548;9.964;2023-04-24T08:27:58;5.27;;;2.47;;
28613;SDS011;15806;53.548;9.964;2023-04-24T08:29:38;4.50;;;2.83;;
28613;SDS011;15806;53.548;9.964;2023-04-24T08:31:31;7.95;;;2.20;;
28613;SDS011;15806;53.548;9.964;2023-04-24T08:33:14;5.40;;;2.85;;
28613;SDS011;15806;53.548;9.964;2023-04-24T08:34:55;4.13;;;2.63;;
28613;SDS011;15806;53.548;9.964;2023-04-24T08:36:45;7.07;;;2.80;;
28613;SDS011;15806;53.548;9.964;2023-04-24T08:38:32;5.30;;;2.50;;
28613;SDS011;15806;53.548;9.964;2023-04-24T08:44:48;4.13;;;2.80;;
28613;SDS011;15806;53.548;9.964;2023-04-24T08:46:30;4.50;;;2.88;;
28613;SDS011;15806;53.548;9.964;2023-04-24T08:48:11;2.80;;;2.13;;
28613;SDS011;15806;53.548;9.964;2023-04-24T08:52:27;4.18;;;2.40;;
28613;SDS011;15806;53.548;9.964;2023-04-24T08:54:30;5.50;;;3.28;;
28613;SDS011;15806;53.548;9.964;2023-04-24T08:56:22;6.47;;;3.38;;
28613;SDS011;15806;53.548;9.964;2023-04-24T08:58:04;4.57;;;3.30;;
28613;SDS011;15806;53.548;9.964;2023-04-24T09:02:17;4.57;;;3.15;;
28613;SDS011;15806;53.548;9.964;2023-04-24T09:04:16;4.53;;;3.72;;
28613;SDS011;15806;53.548;9.964;2023-04-24T09:10:08;6.13;;;3.47;;
28613;SDS011;15806;53.548;9.964;2023-04-24T09:11:52;5.60;;;3.70;;
28613;SDS011;15806;53.548;9.964;2023-04-24T09:13:42;6.45;;;3.92;;
28613;SDS011;15806;53.548;9.964;2023-04-24T09:15:29;5.28;;;3.53;;
28613;SDS011;15806;53.548;9.964;2023-04-24T09:19:30;8.88;;;3.58;;
28613;SDS011;15806;53.548;9.964;2023-04-24T09:21:11;4.53;;;2.60;;
28613;SDS011;15806;53.548;9.964;2023-04-24T09:22:54;6.57;;;3.27;;
28613;SDS011;15806;53.548;9.964;2023-04-24T09:24:37;5.95;;;3.70;;
28613;SDS011;15806;53.548;9.964;2023-04-24T09:26:21;5.47;;;3.65;;
28613;SDS011;15806;53.548;9.964;2023-04-24T09:28:03;5.63;;;2.60;;
28613;SDS011;15806;53.548;9.964;2023-04-24T09:30:00;4.78;;;3.20;;
28613;SDS011;15806;53.548;9.964;2023-04-24T09:31:41;6.35;;;3.28;;
28613;SDS011;15806;53.548;9.964;2023-04-24T09:37:42;6.80;;;3.45;;
28613;SDS011;15806;53.548;9.964;2023-04-24T09:39:24;8.43;;;4.03;;
28613;SDS011;15806;53.548;9.964;2023-04-24T09:41:13;3.90;;;2.35;;
28613;SDS011;15806;53.548;9.964;2023-04-24T09:42:55;5.25;;;3.10;;
28613;SDS011;15806;53.548;9.964;2023-04-24T09:44:36;4.63;;;3.40;;
28613;SDS011;15806;53.548;9.964;2023-04-24T09:46:16;6.43;;;3.20;;
28613;SDS011;15806;53.548;9.964;2023-04-24T09:47:58;5.30;;;3.42;;
28613;SDS011;15806;53.548;9.964;2023-04-24T09:49:39;5.50;;;2.87;;
28613;SDS011;15806;53.548;9.964;2023-04-24T09:51:19;4.80;;;3.40;;
28613;SDS011;15806;53.548;9.964;2023-04-24T09:53:14;5.60;;;3.17;;
28613;SDS011;15806;53.548;9.964;2023-04-24T09:54:54;5.57;;;2.87;;
28613;SDS011;15806;53.548;9.964;2023-04-24T09:56:35;6.63;;;3.53;;
28613;SDS011;15806;53.548;9.964;2023-04-24T09:58:16;8.97;;;3.73;;
28613;SDS011;15806;53.548;9.964;2023-04-24T09:59:56;7.87;;;4.50;;
28613;SDS011;15806;53.548;9.964;2023-04-24T10:01:37;6.88;;;4.25;;
28613;SDS011;15806;53.548;9.964;2023-04-24T10:03:18;7.17;;;4.20;;
28613;SDS011;15806;53.548;9.964;2023-04-24T10:04:58;5.97;;;3.70;;
28613;SDS011;15806;53.548;9.964;2023-04-24T10:06:39;7.80;;;5.17;;
28613;SDS011;15806;53.548;9.964;2023-04-24T10:08:22;5.78;;;4.28;;
28613;SDS011;15806;53.548;9.964;2023-04-24T10:10:03;8.73;;;4.73;;
28613;SDS011;15806;53.548;9.964;2023-04-24T10:11:45;7.53;;;4.32;;
28613;SDS011;15806;53.548;9.964;2023-04-24T10:13:27;8.38;;;4.72;;
28613;SDS011;15806;53.548;9.964;2023-04-24T10:15:09;7.73;;;4.53;;
28613;SDS011;15806;53.548;9.964;2023-04-24T10:16:54;9.82;;;5.32;;
28613;SDS011;15806;53.548;9.964;2023-04-24T10:18:35;7.78;;;4.47;;
28613;SDS011;15806;53.548;9.964;2023-04-24T10:20:16;7.68;;;4.75;;
28613;SDS011;15806;53.548;9.964;2023-04-24T10:21:57;7.23;;;4.00;;
28613;SDS011;15806;53.548;9.964;2023-04-24T10:23:38;13.00;;;6.55;;
28613;SDS011;15806;53.548;9.964;2023-04-24T10:25:22;10.90;;;5.05;;
28613;SDS011;15806;53.548;9.964;2023-04-24T10:27:07;13.55;;;6.43;;
28613;SDS011;15806;53.548;9.964;2023-04-24T10:28:49;9.00;;;5.10;;
28613;SDS011;15806;53.548;9.964;2023-04-24T10:30:30;9.50;;;4.95;;
28613;SDS011;15806;53.548;9.964;2023-04-24T10:32:13;9.93;;;5.97;;
28613;SDS011;15806;53.548;9.964;2023-04-24T10:33:54;11.70;;;5.90;;
28613;SDS011;15806;53.548;9.964;2023-04-24T10:35:40;11.48;;;6.32;;
28613;SDS011;15806;53.548;9.964;2023-04-24T10:37:24;10.18;;;5.70;;
28613;SDS011;15806;53.548;9.964;2023-04-24T10:39:06;13.68;;;6.03;;
28613;SDS011;15806;53.548;9.964;2023-04-24T10:40:49;10.07;;;5.88;;
28613;SDS011;15806;53.548;9.964;2023-04-24T10:42:30;11.90;;;6.10;;
28613;SDS011;15806;53.548;9.964;2023-04-24T10:44:12;11.17;;;6.77;;
28613;SDS011;15806;53.548;9.964;2023-04-24T10:46:00;11.80;;;5.50;;